createdAt,value
2022-07-29T00:01:43.045Z,100426.56
2022-07-29T00:04:10.554Z,100421.66
2022-07-29T00:06:37.838Z,100411.41
2022-07-29T00:09:05.528Z,100416.28
2022-07-29T00:11:32.943Z,100410.13
2022-07-29T00:14:00.233Z,100418.72
2022-07-29T00:16:27.702Z,100398.31
2022-07-29T00:18:54.981Z,100417.56
2022-07-29T00:21:22.275Z,100406.56
2022-07-29T00:23:49.707Z,100418.38
2022-07-29T00:26:16.902Z,100409.81
2022-07-29T00:28:44.256Z,100419.22
2022-07-29T00:31:12.014Z,100411.88
2022-07-29T00:33:39.292Z,100413.97
2022-07-29T00:36:06.748Z,100407.03
2022-07-29T00:38:34.037Z,100413.56
2022-07-29T00:41:01.315Z,100421.31
2022-07-29T00:43:28.510Z,100417.66
2022-07-29T00:45:56.196Z,100417.25
2022-07-29T00:48:23.479Z,100417.25
2022-07-29T00:50:50.881Z,100413.56
2022-07-29T00:53:18.210Z,100407.44
2022-07-29T00:55:45.929Z,100423.38
2022-07-29T00:58:14.595Z,100413.97
2022-07-29T01:00:43.970Z,100418.88
2022-07-29T01:03:13.609Z,100423.41
2022-07-29T01:05:50.429Z,100420.50
2022-07-29T01:08:21.461Z,100434.78
2022-07-29T01:10:50.122Z,100418.84
2022-07-29T01:13:18.046Z,100422.94
2022-07-29T01:15:53.849Z,100418.88
2022-07-29T01:18:29.056Z,100425.81
2022-07-29T01:21:09.211Z,100431.97
2022-07-29T01:23:44.656Z,100432.75
2022-07-29T01:26:37.146Z,100430.31
2022-07-29T01:29:25.792Z,100429.06
2022-07-29T01:32:07.029Z,100441.63
2022-07-29T01:34:40.539Z,100439.16
2022-07-29T01:37:23.483Z,100437.50
2022-07-29T01:39:53.703Z,100442.34
2022-07-29T01:42:46.415Z,100439.06
2022-07-29T01:45:38.373Z,100445.22
2022-07-29T01:48:17.884Z,100421.97
2022-07-29T01:50:51.826Z,100422.78
2022-07-29T01:53:43.832Z,100421.59
2022-07-29T01:56:13.510Z,100425.25
2022-07-29T01:58:43.415Z,100420.75
2022-07-29T02:01:13.811Z,100404.84
2022-07-29T02:03:47.235Z,100436.31
2022-07-29T02:06:19.804Z,100431.81
2022-07-29T02:08:48.348Z,100445.25
2022-07-29T02:11:15.553Z,100430.53
2022-07-29T02:13:44.620Z,100443.56
2022-07-29T02:16:13.171Z,100434.88
2022-07-29T02:18:43.264Z,100427.94
2022-07-29T02:21:15.184Z,100444.28
2022-07-29T02:23:50.940Z,100422.66
2022-07-29T02:26:21.646Z,100422.69
2022-07-29T02:28:51.016Z,100427.22
2022-07-29T02:31:22.962Z,100432.91
2022-07-29T02:33:51.546Z,100424.34
2022-07-29T02:36:22.253Z,100428.03
2022-07-29T02:38:54.653Z,100428.44
2022-07-29T02:41:27.477Z,100402.34
2022-07-29T02:44:05.375Z,100422.75
2022-07-29T02:46:36.108Z,100419.09
2022-07-29T02:49:10.834Z,100429.72
2022-07-29T02:51:50.535Z,100424.81
2022-07-29T02:54:25.471Z,100434.22
2022-07-29T02:56:56.602Z,100435.47
2022-07-29T02:59:28.243Z,100436.31
2022-07-29T03:01:56.870Z,100420.81
2022-07-29T03:04:26.960Z,100428.97
2022-07-29T03:06:55.706Z,100423.25
2022-07-29T03:09:24.560Z,100426.19
2022-07-29T03:11:52.184Z,100428.66
2022-07-29T03:14:21.263Z,100431.91
2022-07-29T03:16:50.102Z,100429.47
2022-07-29T03:19:18.492Z,100439.25
2022-07-29T03:21:45.926Z,100441.31
2022-07-29T03:24:33.476Z,100442.56
2022-07-29T03:27:01.385Z,100440.50
2022-07-29T03:29:33.104Z,100429.91
2022-07-29T03:32:08.264Z,100441.75
2022-07-29T03:34:37.723Z,100442.56
2022-07-29T03:37:07.203Z,100453.19
2022-07-29T03:39:40.411Z,100454.41
2022-07-29T03:42:09.703Z,100452.41
2022-07-29T03:44:38.435Z,100445.88
2022-07-29T03:47:09.255Z,100447.09
2022-07-29T03:49:39.282Z,100445.47
2022-07-29T03:52:07.369Z,100452.81
2022-07-29T03:54:35.065Z,100450.75
2022-07-29T03:57:03.582Z,100453.22
2022-07-29T03:59:33.884Z,100450.75
2022-07-29T04:02:04.493Z,100447.88
2022-07-29T04:04:34.635Z,100456.88
2022-07-29T04:07:02.248Z,100434.00
2022-07-29T04:09:29.748Z,100443.81
2022-07-29T04:12:02.977Z,100455.25
2022-07-29T04:14:32.304Z,100460.53
2022-07-29T04:17:00.257Z,100458.09
2022-07-29T04:19:27.780Z,100451.13
2022-07-29T04:21:55.110Z,100459.72
2022-07-29T04:24:22.515Z,100463.41
2022-07-29T04:26:50.138Z,100467.91
2022-07-29T04:29:17.371Z,100469.13
2022-07-29T04:31:45.033Z,100467.50
2022-07-29T04:34:13.727Z,100472.00
2022-07-29T04:36:41.289Z,100456.88
2022-07-29T04:39:08.704Z,100468.72
2022-07-29T04:41:35.812Z,100466.25
2022-07-29T04:44:07.000Z,100476.91
2022-07-29T04:46:36.086Z,100479.75
2022-07-29T04:49:04.663Z,100473.59
2022-07-29T04:51:32.510Z,100464.19
2022-07-29T04:53:59.739Z,100475.66
2022-07-29T04:56:27.719Z,100468.66
2022-07-29T04:58:55.185Z,100469.88
2022-07-29T05:01:22.571Z,100465.75
2022-07-29T05:03:50.055Z,100468.97
2022-07-29T05:06:17.438Z,100480.81
2022-07-29T05:08:44.936Z,100475.91
2022-07-29T05:11:14.929Z,100467.31
2022-07-29T05:13:47.171Z,100483.22
2022-07-29T05:16:15.899Z,100482.00
2022-07-29T05:18:43.392Z,100478.28
2022-07-29T05:21:10.927Z,100482.34
2022-07-29T05:23:38.441Z,100475.31
2022-07-29T05:26:05.600Z,100473.63
2022-07-29T05:28:38.983Z,100480.09
2022-07-29T05:31:06.349Z,100486.66
2022-07-29T05:33:36.504Z,100479.66
2022-07-29T05:36:08.194Z,100489.00
2022-07-29T05:38:36.773Z,100480.72
2022-07-29T05:41:05.331Z,100475.72
2022-07-29T05:43:33.204Z,100476.50
2022-07-29T05:46:00.654Z,100472.78
2022-07-29T05:48:28.958Z,100476.75
2022-07-29T05:50:56.318Z,100479.53
2022-07-29T05:53:24.051Z,100473.75
2022-07-29T05:55:51.939Z,100481.56
2022-07-29T05:58:19.868Z,100483.53
2022-07-29T06:00:47.127Z,100481.06
2022-07-29T06:03:14.514Z,100484.31
2022-07-29T06:05:42.006Z,100471.94
2022-07-29T06:08:09.259Z,100467.44
2022-07-29T06:10:37.441Z,100480.88
2022-07-29T06:13:04.852Z,100473.47
2022-07-29T06:15:32.244Z,100458.66
2022-07-29T06:18:01.601Z,100470.91
2022-07-29T06:20:33.160Z,100474.06
2022-07-29T06:23:00.881Z,100473.22
2022-07-29T06:25:31.877Z,100483.78
2022-07-29T06:27:59.256Z,100468.94
2022-07-29T06:30:26.695Z,100477.47
2022-07-29T06:32:54.423Z,100485.25
2022-07-29T06:35:39.167Z,100470.53
2022-07-29T06:38:25.092Z,100470.44
2022-07-29T06:41:07.026Z,100470.63
2022-07-29T06:43:50.364Z,100475.94
2022-07-29T06:46:21.370Z,100474.66
2022-07-29T06:48:49.322Z,100477.88
2022-07-29T06:51:22.676Z,100477.38
2022-07-29T06:53:59.447Z,100474.00
2022-07-29T06:56:38.582Z,100467.34
2022-07-29T06:59:09.146Z,100473.84
2022-07-29T07:01:41.021Z,100475.38
2022-07-29T07:04:10.170Z,100460.94
2022-07-29T07:06:37.746Z,100448.19
2022-07-29T07:09:05.526Z,100462.47
2022-07-29T07:11:33.956Z,100459.41
2022-07-29T07:14:03.918Z,100449.50
2022-07-29T07:16:32.858Z,100459.22
2022-07-29T07:19:01.098Z,100466.84
2022-07-29T07:21:30.605Z,100461.41
2022-07-29T07:23:59.499Z,100466.34
2022-07-29T07:26:27.096Z,100444.91
2022-07-29T07:28:54.441Z,100453.00
2022-07-29T07:31:21.837Z,100446.94
2022-07-29T07:33:49.334Z,100457.50
2022-07-29T07:36:16.617Z,100458.22
2022-07-29T07:38:43.775Z,100449.59
2022-07-29T07:41:11.095Z,100441.38
2022-07-29T07:43:38.956Z,100453.66
2022-07-29T07:46:06.227Z,100450.78
2022-07-29T07:48:36.083Z,100460.56
2022-07-29T07:51:03.473Z,100453.16
2022-07-29T07:53:31.637Z,100445.72
2022-07-29T07:56:15.706Z,100454.94
2022-07-29T07:58:43.175Z,100447.03
2022-07-29T08:01:11.278Z,100442.84
2022-07-29T08:03:39.092Z,100442.78
2022-07-29T08:06:07.613Z,100454.84
2022-07-29T08:08:35.207Z,100446.13
2022-07-29T08:11:09.548Z,100448.63
2022-07-29T08:13:39.374Z,100449.91
2022-07-29T08:16:14.178Z,100440.88
2022-07-29T08:18:43.427Z,100454.41
2022-07-29T08:21:11.280Z,100441.31
2022-07-29T08:23:51.629Z,100430.00
2022-07-29T08:26:23.672Z,100445.50
2022-07-29T08:28:52.099Z,100413.22
2022-07-29T08:31:19.561Z,100420.75
2022-07-29T08:33:47.034Z,100424.63
2022-07-29T08:36:14.759Z,100417.59
2022-07-29T08:38:42.253Z,100428.88
2022-07-29T08:41:09.632Z,100420.59
2022-07-29T08:43:38.674Z,100425.97
2022-07-29T08:46:06.200Z,100422.91
2022-07-29T08:48:34.586Z,100434.22
2022-07-29T08:51:03.154Z,100444.19
2022-07-29T08:53:33.375Z,100429.88
2022-07-29T08:56:03.086Z,100429.88
2022-07-29T08:58:36.955Z,100414.94
2022-07-29T09:01:07.691Z,100429.91
2022-07-29T09:03:42.850Z,100422.44
2022-07-29T09:06:10.851Z,100412.97
2022-07-29T09:08:38.180Z,100410.63
2022-07-29T09:11:05.870Z,100411.50
2022-07-29T09:13:33.401Z,100416.69
2022-07-29T09:16:04.495Z,100408.00
2022-07-29T09:18:42.122Z,100409.19
2022-07-29T09:21:33.787Z,100401.44
2022-07-29T09:24:15.465Z,100400.44
2022-07-29T09:26:45.821Z,100406.88
2022-07-29T09:29:19.305Z,100390.63
2022-07-29T09:31:49.769Z,100387.38
2022-07-29T09:34:22.554Z,100393.88
2022-07-29T09:36:51.767Z,100386.38
2022-07-29T09:39:33.079Z,100385.94
2022-07-29T09:42:03.539Z,100383.50
2022-07-29T09:44:49.411Z,100383.94
2022-07-29T09:47:18.490Z,100387.91
2022-07-29T09:50:01.695Z,100377.41
2022-07-29T09:52:31.884Z,100386.91
2022-07-29T09:55:13.830Z,100396.69
2022-07-29T09:57:47.612Z,100393.06
2022-07-29T10:00:20.415Z,100394.97
2022-07-29T10:02:48.891Z,100392.06
2022-07-29T10:05:26.155Z,100394.41
2022-07-29T10:07:59.687Z,100370.31
2022-07-29T10:10:32.933Z,100378.25
2022-07-29T10:13:08.891Z,100382.28
2022-07-29T10:15:42.132Z,100378.72
2022-07-29T10:18:10.321Z,100381.31
2022-07-29T10:20:38.690Z,100383.56
2022-07-29T10:23:06.896Z,100384.03
2022-07-29T10:25:34.674Z,100375.75
2022-07-29T10:28:02.044Z,100378.19
2022-07-29T10:30:29.864Z,100376.91
2022-07-29T10:33:12.925Z,100395.94
2022-07-29T10:35:54.093Z,100386.00
2022-07-29T10:39:09.470Z,100386.72
2022-07-29T10:41:56.185Z,100375.38
2022-07-29T10:44:26.219Z,100364.72
2022-07-29T10:46:54.834Z,100363.97
2022-07-29T10:49:30.496Z,100384.19
2022-07-29T10:52:08.404Z,100392.31
2022-07-29T10:54:44.205Z,100384.91
2022-07-29T10:57:25.766Z,100386.88
2022-07-29T11:00:17.061Z,100389.84
2022-07-29T11:02:47.003Z,100378.63
2022-07-29T11:05:20.605Z,100379.91
2022-07-29T11:08:20.127Z,100380.00
2022-07-29T11:10:50.140Z,100390.50
2022-07-29T11:13:52.321Z,100386.22
2022-07-29T11:16:26.797Z,100364.22
2022-07-29T11:19:14.159Z,100375.94
2022-07-29T11:21:55.162Z,100376.88
2022-07-29T11:24:32.356Z,100374.66
2022-07-29T11:27:40.777Z,100366.81
2022-07-29T11:30:10.917Z,100353.03
2022-07-29T11:32:41.047Z,100361.84
2022-07-29T11:35:37.682Z,100366.34
2022-07-29T11:38:28.799Z,100360.09
2022-07-29T11:41:18.353Z,100359.41
2022-07-29T11:44:01.384Z,100363.69
2022-07-29T11:46:50.098Z,100359.53
2022-07-29T11:49:32.024Z,100356.84
2022-07-29T11:52:04.265Z,100361.78
2022-07-29T11:54:38.878Z,100342.75
2022-07-29T11:57:22.210Z,100340.94
2022-07-29T11:59:50.737Z,100337.09
2022-07-29T12:05:11.125Z,100346.25
2022-07-29T12:07:02.499Z,100333.63
2022-07-29T12:07:41.058Z,100341.94
2022-07-29T12:10:19.785Z,100324.69
2022-07-29T12:12:57.044Z,100332.56
2022-07-29T12:15:39.281Z,100327.59
2022-07-29T12:18:24.059Z,100339.03
2022-07-29T12:21:06.151Z,100341.66
2022-07-29T12:23:34.409Z,100331.47
2022-07-29T12:26:10.859Z,100340.16
2022-07-29T12:28:49.977Z,100331.84
2022-07-29T12:31:41.882Z,100327.31
2022-07-29T12:34:05.304Z,100335.81
2022-07-29T12:36:33.644Z,100325.59
2022-07-29T12:39:01.115Z,100331.09
2022-07-29T12:41:32.165Z,100330.41
2022-07-29T12:43:59.584Z,100321.28
2022-07-29T12:46:26.970Z,100322.09
2022-07-29T12:48:59.830Z,100328.13
2022-07-29T12:51:32.430Z,100316.78
2022-07-29T12:54:30.512Z,100320.03
2022-07-29T12:57:01.487Z,100321.38
2022-07-29T12:59:28.923Z,100319.53
2022-07-29T13:01:56.500Z,100312.69
2022-07-29T13:04:32.208Z,100308.53
2022-07-29T13:07:05.311Z,100321.38
2022-07-29T13:09:49.659Z,100320.56
2022-07-29T13:12:17.297Z,100323.53
2022-07-29T13:14:47.300Z,100320.78
2022-07-29T13:17:16.892Z,100313.09
2022-07-29T13:20:13.749Z,100325.59
2022-07-29T13:22:48.992Z,100315.16
2022-07-29T13:25:25.779Z,100314.16
2022-07-29T13:27:55.566Z,100309.19
2022-07-29T13:30:24.512Z,100300.72
2022-07-29T13:32:53.617Z,100311.59
2022-07-29T13:35:21.462Z,100311.59
2022-07-29T13:37:50.086Z,100316.59
2022-07-29T13:40:19.466Z,100283.25
2022-07-29T13:42:47.060Z,100283.25
2022-07-29T13:45:14.823Z,100298.56
2022-07-29T13:47:47.449Z,100302.13
2022-07-29T13:50:16.867Z,100301.22
2022-07-29T13:52:44.228Z,100294.88
2022-07-29T13:55:11.662Z,100286.03
2022-07-29T13:57:39.066Z,100283.88
2022-07-29T14:00:06.828Z,100294.06
2022-07-29T14:02:36.031Z,100297.41
2022-07-29T14:05:07.992Z,100293.44
2022-07-29T14:07:36.019Z,100291.50
2022-07-29T14:10:04.327Z,100284.31
2022-07-29T14:12:32.464Z,100290.44
2022-07-29T14:15:00.304Z,100293.00
2022-07-29T14:17:28.007Z,100293.56
2022-07-29T14:19:55.392Z,100293.78
2022-07-29T14:22:24.608Z,100285.69
2022-07-29T14:24:53.681Z,100300.25
2022-07-29T14:27:37.783Z,100293.56
2022-07-29T14:30:07.363Z,100290.19
2022-07-29T14:32:34.999Z,100282.22
2022-07-29T14:35:02.537Z,100307.56
2022-07-29T14:37:39.720Z,100314.50
2022-07-29T14:40:08.925Z,100294.47
2022-07-29T14:42:38.842Z,100308.56
2022-07-29T14:45:09.101Z,100286.16
2022-07-29T14:47:36.838Z,100300.94
2022-07-29T14:50:05.406Z,100305.53
2022-07-29T14:52:32.882Z,100296.38
2022-07-29T14:55:00.722Z,100292.97
2022-07-29T14:57:28.596Z,100303.81
2022-07-29T14:59:56.686Z,100310.13
2022-07-29T15:02:40.005Z,100302.94
2022-07-29T15:05:12.044Z,100290.66
2022-07-29T15:07:39.648Z,100291.38
2022-07-29T15:10:07.732Z,100288.50
2022-07-29T15:12:36.048Z,100304.88
2022-07-29T15:15:03.689Z,100293.81
2022-07-29T15:17:31.883Z,100301.91
2022-07-29T15:19:59.147Z,100301.91
2022-07-29T15:22:26.492Z,100298.28
2022-07-29T15:24:54.018Z,100299.00
2022-07-29T15:27:21.581Z,100294.50
2022-07-29T15:29:49.122Z,100310.50
2022-07-29T15:32:16.596Z,100311.94
2022-07-29T15:34:44.067Z,100313.19
2022-07-29T15:37:12.613Z,100314.66
2022-07-29T15:39:40.206Z,100312.38
2022-07-29T15:42:07.611Z,100302.66
2022-07-29T15:44:35.594Z,100311.94
2022-07-29T15:47:08.769Z,100307.78
2022-07-29T15:49:48.500Z,100309.84
2022-07-29T15:52:25.198Z,100324.53
2022-07-29T15:54:57.903Z,100313.78
2022-07-29T15:57:26.144Z,100335.53
2022-07-29T15:59:53.797Z,100303.97
2022-07-29T16:02:21.348Z,100328.03
2022-07-29T16:04:48.895Z,100315.41
2022-07-29T16:07:16.884Z,100317.84
2022-07-29T16:09:49.366Z,100322.34
2022-07-29T16:12:18.721Z,100331.94
2022-07-29T16:14:46.342Z,100339.09
2022-07-29T16:17:14.236Z,100328.19
2022-07-29T16:19:44.173Z,100329.00
2022-07-29T16:22:12.706Z,100328.19
2022-07-29T16:24:40.460Z,100330.72
2022-07-29T16:27:08.336Z,100324.75
2022-07-29T16:29:37.416Z,100319.88
2022-07-29T16:32:07.182Z,100330.16
2022-07-29T16:34:34.796Z,100326.56
2022-07-29T16:37:02.851Z,100331.88
2022-07-29T16:39:30.372Z,100330.25
2022-07-29T16:42:00.792Z,100330.72
2022-07-29T16:44:29.163Z,100326.75
2022-07-29T16:46:59.318Z,100325.66
2022-07-29T16:49:28.518Z,100329.13
2022-07-29T16:51:55.988Z,100326.75
2022-07-29T16:54:23.659Z,100326.84
2022-07-29T16:56:51.133Z,100329.56
2022-07-29T16:59:18.718Z,100340.31
2022-07-29T17:01:46.082Z,100340.53
2022-07-29T17:04:15.339Z,100327.97
2022-07-29T17:06:43.138Z,100342.59
2022-07-29T17:09:12.750Z,100344.13
2022-07-29T17:11:53.687Z,100343.09
2022-07-29T17:14:27.828Z,100346.50
2022-07-29T17:17:00.365Z,100348.59
2022-07-29T17:19:31.751Z,100361.13
2022-07-29T17:22:08.441Z,100360.00
2022-07-29T17:24:38.293Z,100374.50
2022-07-29T17:27:06.498Z,100372.94
2022-07-29T17:29:37.386Z,100372.56
2022-07-29T17:32:07.550Z,100354.31
2022-07-29T17:34:39.554Z,100373.97
2022-07-29T17:37:09.668Z,100375.59
2022-07-29T17:39:40.856Z,100365.09
2022-07-29T17:42:09.744Z,100392.28
2022-07-29T17:44:38.010Z,100389.09
2022-07-29T17:47:10.652Z,100390.84
2022-07-29T17:49:44.648Z,100378.00
2022-07-29T17:52:12.088Z,100397.53
2022-07-29T17:54:39.293Z,100393.56
2022-07-29T17:57:07.116Z,100388.81
2022-07-29T17:59:34.602Z,100405.28
2022-07-29T18:02:01.999Z,100386.88
2022-07-29T18:04:31.119Z,100385.38
2022-07-29T18:06:58.678Z,100382.13
2022-07-29T18:09:26.158Z,100371.19
2022-07-29T18:11:53.425Z,100380.25
2022-07-29T18:14:20.582Z,100365.88
2022-07-29T18:16:48.252Z,100379.94
2022-07-29T18:19:16.316Z,100361.66
2022-07-29T18:21:51.914Z,100380.88
2022-07-29T18:24:25.776Z,100381.75
2022-07-29T18:26:54.196Z,100381.84
2022-07-29T18:29:21.861Z,100378.69
2022-07-29T18:31:49.631Z,100382.09
2022-07-29T18:34:17.246Z,100377.69
2022-07-29T18:36:46.026Z,100400.16
2022-07-29T18:39:20.300Z,100396.94
2022-07-29T18:41:50.736Z,100394.56
2022-07-29T18:44:21.977Z,100390.91
2022-07-29T18:46:51.587Z,100390.97
2022-07-29T18:49:19.403Z,100393.91
2022-07-29T18:51:46.784Z,100387.78
2022-07-29T18:54:15.117Z,100396.50
2022-07-29T18:56:42.441Z,100402.69
2022-07-29T18:59:11.559Z,100400.72
2022-07-29T19:01:39.248Z,100404.44
2022-07-29T19:04:10.883Z,100388.16
2022-07-29T19:06:38.451Z,100389.06
2022-07-29T19:09:05.843Z,100394.09
2022-07-29T19:11:33.795Z,100400.72
2022-07-29T19:14:03.905Z,100396.28
2022-07-29T19:16:32.046Z,100404.13
2022-07-29T19:19:01.094Z,100398.56
2022-07-29T19:21:29.034Z,100399.78
2022-07-29T19:24:06.024Z,100412.16
2022-07-29T19:26:39.778Z,100408.81
2022-07-29T19:29:07.041Z,100403.22
2022-07-29T19:31:34.353Z,100409.69
2022-07-29T19:34:01.674Z,100401.22
2022-07-29T19:36:29.044Z,100398.38
2022-07-29T19:38:56.345Z,100393.47
2022-07-29T19:41:23.660Z,100408.25
2022-07-29T19:43:53.073Z,100395.69
2022-07-29T19:46:21.765Z,100414.91
2022-07-29T19:48:49.504Z,100405.97
2022-07-29T19:51:17.444Z,100409.25
2022-07-29T19:53:44.733Z,100401.13
2022-07-29T19:56:12.011Z,100396.22
2022-07-29T19:58:41.269Z,100399.53
2022-07-29T20:01:10.694Z,100406.97
2022-07-29T20:03:40.344Z,100416.84
2022-07-29T20:06:08.063Z,100416.03
2022-07-29T20:08:35.600Z,100401.31
2022-07-29T20:11:03.653Z,100395.66
2022-07-29T20:13:33.226Z,100405.06
2022-07-29T20:16:01.968Z,100398.91
2022-07-29T20:18:29.475Z,100405.50
2022-07-29T20:20:57.714Z,100393.66
2022-07-29T20:23:25.147Z,100409.59
2022-07-29T20:25:54.136Z,100414.94
2022-07-29T20:28:22.409Z,100382.69
2022-07-29T20:30:49.789Z,100403.50
2022-07-29T20:33:16.984Z,100406.75
2022-07-29T20:35:44.556Z,100410.88
2022-07-29T20:38:15.126Z,100392.97
2022-07-29T20:40:45.894Z,100406.75
2022-07-29T20:43:13.160Z,100404.81
2022-07-29T20:45:40.512Z,100369.34
2022-07-29T20:48:08.225Z,100392.56
2022-07-29T20:50:36.141Z,100414.75
2022-07-29T20:53:03.627Z,100411.06
2022-07-29T20:55:32.259Z,100394.34
2022-07-29T20:57:59.459Z,100409.41
2022-07-29T21:00:26.943Z,100395.59
2022-07-29T21:02:54.558Z,100395.59
2022-07-29T21:05:21.867Z,100404.59
2022-07-29T21:07:49.290Z,100401.31
2022-07-29T21:10:18.473Z,100395.59
2022-07-29T21:12:49.528Z,100401.81
2022-07-29T21:15:20.813Z,100399.75
2022-07-29T21:17:48.454Z,100413.28
2022-07-29T21:20:17.530Z,100409.63
2022-07-29T21:22:45.179Z,100415.00
2022-07-29T21:25:12.664Z,100393.34
2022-07-29T21:27:58.613Z,100386.41
2022-07-29T21:30:26.631Z,100402.34
2022-07-29T21:32:53.784Z,100399.06
2022-07-29T21:36:01.628Z,100401.53
2022-07-29T21:38:08.845Z,100367.25
2022-07-29T21:40:36.536Z,100371.75
2022-07-29T21:43:04.044Z,100392.19
2022-07-29T21:45:31.199Z,100382.38
2022-07-29T21:47:58.446Z,100399.56
2022-07-29T21:50:25.648Z,100386.06
2022-07-29T21:52:52.836Z,100400.00
2022-07-29T21:55:20.577Z,100409.00
2022-07-29T21:57:49.908Z,100388.59
2022-07-29T22:00:17.129Z,100399.25
2022-07-29T22:02:45.105Z,100405.78
2022-07-29T22:05:12.686Z,100378.41
2022-07-29T22:07:56.453Z,100373.94
2022-07-29T22:10:26.126Z,100387.81
2022-07-29T22:12:55.198Z,100390.28
2022-07-29T22:15:22.494Z,100387.84
2022-07-29T22:17:49.923Z,100392.34
2022-07-29T22:20:17.325Z,100379.63
2022-07-29T22:22:44.512Z,100380.47
2022-07-29T22:25:11.839Z,100384.97
2022-07-29T22:27:39.501Z,100387.84
2022-07-29T22:30:07.967Z,100388.66
2022-07-29T22:32:35.441Z,100388.25
2022-07-29T22:35:02.767Z,100391.09
2022-07-29T22:37:31.239Z,100382.50
2022-07-29T22:39:58.472Z,100381.31
2022-07-29T22:42:26.197Z,100368.63
2022-07-29T22:44:53.324Z,100379.66
2022-07-29T22:47:39.814Z,100371.91
2022-07-29T22:50:08.228Z,100392.72
2022-07-29T22:52:35.478Z,100384.53
2022-07-29T22:55:03.866Z,100372.72
2022-07-29T22:57:31.250Z,100380.47
2022-07-29T23:00:01.803Z,100376.38
2022-07-29T23:02:31.617Z,100382.50
2022-07-29T23:04:58.796Z,100384.94
2022-07-29T23:07:27.532Z,100384.97
2022-07-29T23:09:54.728Z,100382.09
2022-07-29T23:12:22.369Z,100391.47
2022-07-29T23:14:49.586Z,100382.88
2022-07-29T23:17:16.954Z,100372.22
2022-07-29T23:19:44.244Z,100386.53
2022-07-29T23:22:12.096Z,100378.34
2022-07-29T23:24:39.359Z,100383.66
2022-07-29T23:27:08.571Z,100391.81
2022-07-29T23:29:36.858Z,100383.66
2022-07-29T23:32:04.503Z,100388.13
2022-07-29T23:34:31.767Z,100375.47
2022-07-29T23:36:59.353Z,100384.03
2022-07-29T23:39:26.723Z,100383.59
2022-07-29T23:41:53.900Z,100391.34
2022-07-29T23:44:21.568Z,100376.66
2022-07-29T23:46:48.945Z,100375.41
2022-07-29T23:49:16.341Z,100362.38
2022-07-29T23:51:43.675Z,100372.56
2022-07-29T23:54:10.929Z,100390.06
2022-07-29T23:56:38.030Z,100367.59
2022-07-29T23:59:05.946Z,100370.84
